createdAt,value
2023-02-23T00:01:27.229Z,5.59
2023-02-23T00:03:56.263Z,5.58
2023-02-23T00:06:24.338Z,5.59
2023-02-23T00:08:52.278Z,5.57
2023-02-23T00:11:20.354Z,5.58
2023-02-23T00:13:50.493Z,5.51
2023-02-23T00:16:20.433Z,5.51
2023-02-23T00:18:51.613Z,5.48
2023-02-23T00:21:20.968Z,5.40
2023-02-23T00:23:51.110Z,5.49
2023-02-23T00:26:20.885Z,5.42
2023-02-23T00:28:49.132Z,5.44
2023-02-23T00:31:15.674Z,5.30
2023-02-23T00:33:42.743Z,5.37
2023-02-23T00:36:13.440Z,5.40
2023-02-23T00:38:41.262Z,5.43
2023-02-23T00:41:10.175Z,5.42
2023-02-23T00:43:38.711Z,5.46
2023-02-23T00:46:06.181Z,5.43
2023-02-23T00:48:34.671Z,5.42
2023-02-23T00:51:02.649Z,5.43
2023-02-23T00:53:29.344Z,5.46
2023-02-23T00:55:56.466Z,5.42
2023-02-23T00:58:24.750Z,5.49
2023-02-23T01:00:52.099Z,5.49
2023-02-23T01:03:18.946Z,5.51
2023-02-23T01:05:46.118Z,5.54
2023-02-23T01:08:12.630Z,5.48
2023-02-23T01:10:42.988Z,5.50
2023-02-23T01:13:10.294Z,5.42
2023-02-23T01:15:43.575Z,5.45
2023-02-23T01:18:11.311Z,5.48
2023-02-23T01:20:38.390Z,5.45
2023-02-23T01:23:05.770Z,5.47
2023-02-23T01:25:33.802Z,5.44
2023-02-23T01:28:00.980Z,5.51
2023-02-23T01:30:27.527Z,5.55
2023-02-23T01:32:54.137Z,5.59
2023-02-23T01:35:20.654Z,5.56
2023-02-23T01:37:47.214Z,5.59
2023-02-23T01:40:17.033Z,5.59
2023-02-23T01:42:46.154Z,5.62
2023-02-23T01:45:22.988Z,5.59
2023-02-23T01:47:51.988Z,5.63
2023-02-23T01:50:19.893Z,5.59
2023-02-23T01:52:50.271Z,5.47
2023-02-23T01:55:24.391Z,5.44
2023-02-23T01:57:56.264Z,5.47
2023-02-23T02:00:26.199Z,5.47
2023-02-23T02:02:52.955Z,5.50
2023-02-23T02:05:20.606Z,5.50
2023-02-23T02:07:49.604Z,5.46
2023-02-23T02:12:56.525Z,5.40
2023-02-23T02:15:29.587Z,5.40
2023-02-23T02:18:38.248Z,5.38
2023-02-23T02:29:49.350Z,5.23
2023-02-23T02:35:52.691Z,5.26
2023-02-23T02:41:05.653Z,5.30
2023-02-23T02:48:59.559Z,5.27
2023-02-23T02:51:35.206Z,5.28
2023-02-23T02:57:02.291Z,5.31
2023-02-23T02:59:48.734Z,5.27
2023-02-23T03:02:40.525Z,5.26
2023-02-23T03:05:34.326Z,5.30
2023-02-23T03:14:07.095Z,5.30
2023-02-23T03:22:22.042Z,5.27
2023-02-23T03:25:18.101Z,5.28
2023-02-23T03:28:11.416Z,5.32
2023-02-23T03:33:40.010Z,5.32
2023-02-23T03:36:35.835Z,5.35
2023-02-23T03:42:17.966Z,5.42
2023-02-23T03:45:07.909Z,5.42
2023-02-23T03:47:57.298Z,5.31
2023-02-23T03:50:53.089Z,5.34
2023-02-23T03:53:44.673Z,5.39
2023-02-23T03:56:34.010Z,5.45
2023-02-23T03:59:22.727Z,5.45
2023-02-23T04:02:11.344Z,5.46
2023-02-23T04:04:59.771Z,5.50
2023-02-23T04:07:46.391Z,5.46
2023-02-23T04:10:32.855Z,5.47
2023-02-23T04:18:39.633Z,5.44
2023-02-23T04:21:07.613Z,5.45
2023-02-23T04:23:35.978Z,5.51
2023-02-23T04:26:02.522Z,5.51
2023-02-23T04:28:29.340Z,5.45
2023-02-23T04:30:56.121Z,5.46
2023-02-23T04:33:25.017Z,5.48
2023-02-23T04:35:54.114Z,5.52
2023-02-23T04:38:22.594Z,5.54
2023-02-23T04:40:49.525Z,5.53
2023-02-23T04:43:16.212Z,5.56
2023-02-23T04:45:43.056Z,5.55
2023-02-23T04:48:09.806Z,5.60
2023-02-23T04:50:36.545Z,5.56
2023-02-23T04:53:03.502Z,5.58
2023-02-23T04:55:30.062Z,5.59
2023-02-23T04:57:59.202Z,5.56
2023-02-23T05:00:26.573Z,5.54
2023-02-23T05:02:53.168Z,5.59
2023-02-23T05:05:19.927Z,5.60
2023-02-23T05:07:46.698Z,5.59
2023-02-23T05:10:13.640Z,5.61
2023-02-23T05:12:40.214Z,5.60
2023-02-23T05:15:07.356Z,5.57
2023-02-23T05:17:33.867Z,5.55
2023-02-23T05:20:00.382Z,5.51
2023-02-23T05:22:26.930Z,5.54
2023-02-23T05:24:55.264Z,5.55
2023-02-23T05:27:23.047Z,5.56
2023-02-23T05:29:49.561Z,5.57
2023-02-23T05:32:16.221Z,5.52
2023-02-23T05:34:42.956Z,5.57
2023-02-23T05:37:09.563Z,5.48
2023-02-23T05:39:36.086Z,5.48
2023-02-23T05:42:02.619Z,5.50
2023-02-23T05:44:29.191Z,5.48
2023-02-23T05:46:55.786Z,5.53
2023-02-23T05:49:22.656Z,5.51
2023-02-23T05:51:49.270Z,5.50
2023-02-23T05:54:15.894Z,5.47
2023-02-23T05:56:42.815Z,5.51
2023-02-23T05:59:09.353Z,5.40
2023-02-23T06:01:36.206Z,5.53
2023-02-23T06:04:04.544Z,5.49
2023-02-23T06:06:31.852Z,5.44
2023-02-23T06:08:58.354Z,5.46
2023-02-23T06:11:24.961Z,5.51
2023-02-23T06:13:52.382Z,5.49
2023-02-23T06:16:19.044Z,5.35
2023-02-23T06:18:45.623Z,5.42
2023-02-23T06:21:12.543Z,5.31
2023-02-23T06:23:39.098Z,5.32
2023-02-23T06:26:05.642Z,5.37
2023-02-23T06:28:32.243Z,5.36
2023-02-23T06:30:58.933Z,5.31
2023-02-23T06:33:25.969Z,5.28
2023-02-23T06:35:52.902Z,5.27
2023-02-23T06:38:19.590Z,5.28
2023-02-23T06:40:46.208Z,5.24
2023-02-23T06:43:12.776Z,5.30
2023-02-23T06:45:39.439Z,5.25
2023-02-23T06:48:06.554Z,5.26
2023-02-23T06:50:33.232Z,5.19
2023-02-23T06:52:59.842Z,5.18
2023-02-23T06:55:26.437Z,5.16
2023-02-23T06:57:54.535Z,5.08
2023-02-23T07:00:21.964Z,5.03
2023-02-23T07:02:48.844Z,5.04
2023-02-23T07:05:16.320Z,5.06
2023-02-23T07:07:43.353Z,4.98
2023-02-23T07:10:10.705Z,4.95
2023-02-23T07:12:37.283Z,4.98
2023-02-23T07:15:04.328Z,5.00
2023-02-23T07:17:30.864Z,5.00
2023-02-23T07:19:57.578Z,5.01
2023-02-23T07:22:25.324Z,4.96
2023-02-23T07:24:51.857Z,4.95
2023-02-23T07:27:18.428Z,4.95
2023-02-23T07:29:44.938Z,4.96
2023-02-23T07:32:11.905Z,4.85
2023-02-23T07:34:39.080Z,4.97
2023-02-23T07:37:05.849Z,4.90
2023-02-23T07:39:32.422Z,4.94
2023-02-23T07:41:59.006Z,4.94
2023-02-23T07:44:25.583Z,4.92
2023-02-23T07:46:52.896Z,4.94
2023-02-23T07:49:19.463Z,4.95
2023-02-23T07:51:46.472Z,4.99
2023-02-23T07:54:13.598Z,4.97
2023-02-23T07:56:40.148Z,4.94
2023-02-23T07:59:06.676Z,4.95
2023-02-23T08:01:33.269Z,5.00
2023-02-23T08:03:59.900Z,4.99
2023-02-23T08:06:26.577Z,4.91
2023-02-23T08:08:53.099Z,4.97
2023-02-23T08:11:19.944Z,4.94
2023-02-23T08:13:46.650Z,4.98
2023-02-23T08:16:13.222Z,4.97
2023-02-23T08:18:40.138Z,4.96
2023-02-23T08:21:06.808Z,4.91
2023-02-23T08:23:34.319Z,4.97
2023-02-23T08:26:02.144Z,4.97
2023-02-23T08:28:30.160Z,4.99
2023-02-23T08:30:57.076Z,5.01
2023-02-23T08:33:23.762Z,5.00
2023-02-23T08:35:50.315Z,5.02
2023-02-23T08:38:18.363Z,5.00
2023-02-23T08:40:45.091Z,5.10
2023-02-23T08:43:11.646Z,5.18
2023-02-23T08:45:39.602Z,5.29
2023-02-23T08:48:08.870Z,5.27
2023-02-23T08:50:35.479Z,5.34
2023-02-23T08:53:02.038Z,5.33
2023-02-23T08:55:28.568Z,5.29
2023-02-23T08:57:55.149Z,5.30
2023-02-23T09:00:22.129Z,5.27
2023-02-23T09:02:48.729Z,5.30
2023-02-23T09:05:16.432Z,5.30
2023-02-23T09:07:45.311Z,5.29
2023-02-23T09:10:14.442Z,5.25
2023-02-23T09:12:41.015Z,5.31
2023-02-23T09:15:08.645Z,5.34
2023-02-23T09:17:35.220Z,5.32
2023-02-23T09:20:02.194Z,5.33
2023-02-23T09:22:28.765Z,5.33
2023-02-23T09:24:55.435Z,5.35
2023-02-23T09:27:22.007Z,5.42
2023-02-23T09:29:48.616Z,5.50
2023-02-23T09:32:15.588Z,5.61
2023-02-23T09:34:42.278Z,5.74
2023-02-23T09:37:08.829Z,5.80
2023-02-23T09:39:38.383Z,5.78
2023-02-23T09:50:12.349Z,6.12
2023-02-23T09:52:44.966Z,6.31
2023-02-23T09:55:14.195Z,7.06
2023-02-23T09:57:44.636Z,8.13
2023-02-23T10:00:18.510Z,9.21
2023-02-23T10:05:47.949Z,11.05
2023-02-23T10:16:22.767Z,12.84
2023-02-23T10:21:46.628Z,13.97
2023-02-23T10:24:20.206Z,14.30
2023-02-23T10:26:53.065Z,14.49
2023-02-23T10:29:29.050Z,14.70
2023-02-23T10:32:02.549Z,14.75
2023-02-23T10:34:31.051Z,14.80
2023-02-23T10:37:01.916Z,14.88
2023-02-23T10:39:30.674Z,15.13
2023-02-23T10:42:04.992Z,15.26
2023-02-23T10:44:31.812Z,15.30
2023-02-23T10:47:01.751Z,15.31
2023-02-23T10:49:40.694Z,15.66
2023-02-23T10:52:13.611Z,15.80
2023-02-23T10:54:44.699Z,15.75
2023-02-23T10:57:25.640Z,15.59
2023-02-23T11:00:02.515Z,15.57
2023-02-23T11:02:30.983Z,15.52
2023-02-23T11:05:00.198Z,15.29
2023-02-23T11:07:30.023Z,14.94
2023-02-23T11:09:57.922Z,14.57
2023-02-23T11:15:35.243Z,13.55
2023-02-23T11:18:06.849Z,13.18
2023-02-23T11:20:39.478Z,12.94
2023-02-23T11:23:29.069Z,12.59
2023-02-23T11:26:00.922Z,12.43
2023-02-23T11:31:15.778Z,12.06
2023-02-23T11:33:42.541Z,11.99
2023-02-23T11:36:27.651Z,11.88
2023-02-23T11:45:15.484Z,11.49
2023-02-23T11:47:49.355Z,11.35
2023-02-23T11:53:15.400Z,10.92
2023-02-23T11:55:59.268Z,10.88
2023-02-23T11:58:35.838Z,10.74
2023-02-23T12:01:12.218Z,10.63
2023-02-23T12:03:45.250Z,10.44
2023-02-23T12:06:12.015Z,10.26
2023-02-23T12:08:53.189Z,10.22
2023-02-23T12:11:24.795Z,10.19
2023-02-23T12:13:59.469Z,10.16
2023-02-23T12:16:32.692Z,10.00
2023-02-23T12:19:06.693Z,9.95
2023-02-23T12:21:39.957Z,9.75
2023-02-23T12:26:49.407Z,9.74
2023-02-23T12:29:25.387Z,9.89
2023-02-23T12:32:02.865Z,10.03
2023-02-23T12:34:47.470Z,10.06
2023-02-23T12:37:44.690Z,10.01
2023-02-23T12:40:16.956Z,10.01
2023-02-23T12:45:38.564Z,9.91
2023-02-23T12:50:58.399Z,9.72
2023-02-23T12:56:21.268Z,9.51
2023-02-23T13:01:43.488Z,9.45
2023-02-23T13:06:59.758Z,9.36
2023-02-23T13:09:41.311Z,9.31
2023-02-23T13:18:27.042Z,9.35
2023-02-23T13:21:01.779Z,9.30
2023-02-23T13:31:36.434Z,9.07
2023-02-23T13:34:09.465Z,9.18
2023-02-23T13:36:37.203Z,9.27
2023-02-23T13:41:50.440Z,9.32
2023-02-23T13:44:42.008Z,9.18
2023-02-23T13:47:34.659Z,9.09
2023-02-23T13:56:08.921Z,9.11
2023-02-23T13:58:36.240Z,9.06
2023-02-23T14:01:14.451Z,8.99
2023-02-23T14:03:47.064Z,8.97
2023-02-23T14:06:17.831Z,8.89
2023-02-23T14:08:52.349Z,8.81
2023-02-23T14:22:23.521Z,8.99
2023-02-23T14:25:29.898Z,8.91
2023-02-23T14:28:02.599Z,8.87
2023-02-23T14:30:43.482Z,8.77
2023-02-23T14:39:22.478Z,8.35
2023-02-23T14:41:59.916Z,8.34
2023-02-23T14:44:31.310Z,8.41
2023-02-23T14:47:07.410Z,8.47
2023-02-23T14:49:40.558Z,8.52
2023-02-23T14:52:13.995Z,8.51
2023-02-23T14:54:41.411Z,8.39
2023-02-23T14:57:25.380Z,8.32
2023-02-23T14:59:58.246Z,8.34
2023-02-23T15:02:27.086Z,8.39
2023-02-23T15:04:54.138Z,8.39
2023-02-23T15:07:36.480Z,8.41
2023-02-23T15:10:10.536Z,8.39
2023-02-23T15:12:38.529Z,8.39
2023-02-23T15:15:12.969Z,8.34
2023-02-23T15:17:44.011Z,8.29
2023-02-23T15:20:17.131Z,8.35
2023-02-23T15:22:47.305Z,8.37
2023-02-23T15:27:51.878Z,8.48
2023-02-23T15:33:06.069Z,8.40
2023-02-23T15:35:45.565Z,8.34
2023-02-23T15:38:40.545Z,8.22
2023-02-23T15:41:07.993Z,8.10
2023-02-23T15:43:34.851Z,8.01
2023-02-23T15:46:05.527Z,7.94
2023-02-23T15:48:45.747Z,7.89
2023-02-23T15:51:25.184Z,7.82
2023-02-23T15:53:51.988Z,7.82
2023-02-23T15:56:28.337Z,7.78
2023-02-23T15:59:02.348Z,7.74
2023-02-23T16:01:31.079Z,7.68
2023-02-23T16:06:36.642Z,7.65
2023-02-23T16:15:00.922Z,7.62
2023-02-23T16:17:36.501Z,7.66
2023-02-23T16:20:18.982Z,7.62
2023-02-23T16:22:46.928Z,7.62
2023-02-23T16:25:16.757Z,7.59
2023-02-23T16:27:45.636Z,7.55
2023-02-23T16:35:48.942Z,7.38
2023-02-23T16:38:37.977Z,7.29
2023-02-23T16:41:10.472Z,7.28
2023-02-23T16:43:37.548Z,7.24
2023-02-23T16:46:04.187Z,7.24
2023-02-23T16:48:30.783Z,7.17
2023-02-23T16:50:57.654Z,7.14
2023-02-23T16:53:25.293Z,7.08
2023-02-23T16:55:55.567Z,7.07
2023-02-23T16:58:23.384Z,6.89
2023-02-23T17:00:51.199Z,6.89
2023-02-23T17:03:21.666Z,6.91
2023-02-23T17:05:48.362Z,6.85
2023-02-23T17:08:15.132Z,6.80
2023-02-23T17:10:43.772Z,6.78
2023-02-23T17:13:19.135Z,6.72
2023-02-23T17:15:50.606Z,6.65
2023-02-23T17:18:19.540Z,6.60
2023-02-23T17:20:46.412Z,6.55
2023-02-23T17:23:12.956Z,6.48
2023-02-23T17:25:39.674Z,6.42
2023-02-23T17:28:06.266Z,6.35
2023-02-23T17:30:34.167Z,6.29
2023-02-23T17:33:01.644Z,6.23
2023-02-23T17:35:28.596Z,6.16
2023-02-23T17:37:55.561Z,6.10
2023-02-23T17:40:26.367Z,6.05
2023-02-23T17:42:53.574Z,5.98
2023-02-23T17:45:20.215Z,5.91
2023-02-23T17:47:46.794Z,5.85
2023-02-23T17:50:13.370Z,5.78
2023-02-23T17:52:40.017Z,5.72
2023-02-23T17:55:08.847Z,5.64
2023-02-23T17:57:35.627Z,5.56
2023-02-23T18:00:02.355Z,5.49
2023-02-23T18:02:28.900Z,5.43
2023-02-23T18:04:55.464Z,5.37
2023-02-23T18:07:22.206Z,5.31
2023-02-23T18:09:50.209Z,5.27
2023-02-23T18:12:19.260Z,5.22
2023-02-23T18:14:46.608Z,5.16
2023-02-23T18:17:14.076Z,5.09
2023-02-23T18:19:40.656Z,5.04
2023-02-23T18:22:07.275Z,4.98
2023-02-23T18:24:34.307Z,4.94
2023-02-23T18:27:01.727Z,4.89
2023-02-23T18:29:29.641Z,4.84
2023-02-23T18:31:57.695Z,4.79
2023-02-23T18:34:25.793Z,4.73
2023-02-23T18:36:52.353Z,4.69
2023-02-23T18:39:19.252Z,4.64
2023-02-23T18:41:45.808Z,4.58
2023-02-23T18:44:15.033Z,4.54
2023-02-23T18:46:43.165Z,4.48
2023-02-23T18:49:20.348Z,4.43
2023-02-23T18:51:47.708Z,4.41
2023-02-23T18:54:18.504Z,4.37
2023-02-23T18:56:47.018Z,4.33
2023-02-23T18:59:14.421Z,4.29
2023-02-23T19:01:42.577Z,4.26
2023-02-23T19:04:10.647Z,4.22
2023-02-23T19:06:39.086Z,4.16
2023-02-23T19:09:09.601Z,4.11
2023-02-23T19:11:37.592Z,4.07
2023-02-23T19:14:07.404Z,4.04
2023-02-23T19:16:36.120Z,4.02
2023-02-23T19:19:05.071Z,4.00
2023-02-23T19:21:31.787Z,3.96
2023-02-23T19:23:59.478Z,3.94
2023-02-23T19:26:26.743Z,3.93
2023-02-23T19:28:53.767Z,3.90
2023-02-23T19:31:25.973Z,3.88
2023-02-23T19:33:55.842Z,3.86
2023-02-23T19:36:26.140Z,3.82
2023-02-23T19:38:52.659Z,3.79
2023-02-23T19:41:20.745Z,3.76
2023-02-23T19:43:47.794Z,3.73
2023-02-23T19:46:17.226Z,3.69
2023-02-23T19:48:45.677Z,3.66
2023-02-23T19:51:13.334Z,3.63
2023-02-23T19:53:40.380Z,3.60
2023-02-23T19:56:10.738Z,3.58
2023-02-23T19:58:37.921Z,3.55
2023-02-23T20:01:06.859Z,3.52
2023-02-23T20:03:33.709Z,3.49
2023-02-23T20:06:04.984Z,3.46
2023-02-23T20:08:31.640Z,3.43
2023-02-23T20:10:58.357Z,3.41
2023-02-23T20:13:24.959Z,3.37
2023-02-23T20:16:01.927Z,3.32
2023-02-23T20:18:28.757Z,3.19
2023-02-23T20:20:55.400Z,3.16
2023-02-23T20:23:21.911Z,3.05
2023-02-23T20:25:48.490Z,3.02
2023-02-23T20:28:15.087Z,2.93
2023-02-23T20:30:46.879Z,2.88
2023-02-23T20:33:15.218Z,2.86
2023-02-23T20:35:42.519Z,2.83
2023-02-23T20:38:10.004Z,2.79
2023-02-23T20:40:36.749Z,2.79
2023-02-23T20:43:03.365Z,2.78
2023-02-23T20:45:29.932Z,2.76
2023-02-23T20:47:56.506Z,2.76
2023-02-23T20:50:27.831Z,2.74
2023-02-23T20:52:54.952Z,2.74
2023-02-23T20:55:27.203Z,2.72
2023-02-23T20:57:55.523Z,2.69
2023-02-23T21:00:23.943Z,2.69
2023-02-23T21:02:55.588Z,2.66
2023-02-23T21:05:24.979Z,2.64
2023-02-23T21:07:51.639Z,2.62
2023-02-23T21:10:20.344Z,2.59
2023-02-23T21:12:46.929Z,2.57
2023-02-23T21:15:14.931Z,2.55
2023-02-23T21:17:42.232Z,2.52
2023-02-23T21:20:12.980Z,2.49
2023-02-23T21:22:40.305Z,2.46
2023-02-23T21:25:10.845Z,2.44
2023-02-23T21:27:38.255Z,2.35
2023-02-23T21:30:06.336Z,2.39
2023-02-23T21:32:35.506Z,2.39
2023-02-23T21:35:02.149Z,2.39
2023-02-23T21:37:28.710Z,2.35
2023-02-23T21:39:55.450Z,2.34
2023-02-23T21:42:24.110Z,2.33
2023-02-23T21:44:50.722Z,2.28
2023-02-23T21:47:17.367Z,2.26
2023-02-23T21:49:49.139Z,2.24
2023-02-23T21:52:17.048Z,2.22
2023-02-23T21:54:48.034Z,2.18
2023-02-23T21:57:15.592Z,2.17
2023-02-23T21:59:42.465Z,2.14
2023-02-23T22:02:11.479Z,2.12
2023-02-23T22:04:39.342Z,2.07
2023-02-23T22:07:06.447Z,2.04
2023-02-23T22:09:33.271Z,2.01
2023-02-23T22:11:59.905Z,2.01
2023-02-23T22:14:26.531Z,1.98
2023-02-23T22:16:53.106Z,1.96
2023-02-23T22:19:19.795Z,1.94
2023-02-23T22:21:48.443Z,1.93
2023-02-23T22:24:16.370Z,1.91
2023-02-23T22:26:50.598Z,1.90
2023-02-23T22:29:17.271Z,1.86
2023-02-23T22:31:44.051Z,1.84
2023-02-23T22:34:10.715Z,1.82
2023-02-23T22:36:37.330Z,1.77
2023-02-23T22:39:09.605Z,1.75
2023-02-23T22:41:42.415Z,1.71
2023-02-23T22:44:12.946Z,1.69
2023-02-23T22:46:41.365Z,1.67
2023-02-23T22:49:10.724Z,1.66
2023-02-23T22:51:38.695Z,1.65
2023-02-23T22:54:06.182Z,1.63
2023-02-23T22:56:34.359Z,1.63
2023-02-23T22:59:06.553Z,1.60
2023-02-23T23:01:33.871Z,1.59
2023-02-23T23:04:00.598Z,1.59
2023-02-23T23:06:27.233Z,1.58
2023-02-23T23:08:56.267Z,1.59
2023-02-23T23:11:26.734Z,1.59
2023-02-23T23:13:57.702Z,1.58
2023-02-23T23:16:32.250Z,1.59
2023-02-23T23:19:03.291Z,1.58
2023-02-23T23:21:32.529Z,1.59
2023-02-23T23:24:01.375Z,1.59
2023-02-23T23:26:29.344Z,1.59
2023-02-23T23:28:59.518Z,1.60
2023-02-23T23:31:29.849Z,1.60
2023-02-23T23:34:00.298Z,1.61
2023-02-23T23:36:32.770Z,1.60
2023-02-23T23:38:59.885Z,1.59
2023-02-23T23:41:28.251Z,1.60
2023-02-23T23:43:57.785Z,1.59
2023-02-23T23:46:29.485Z,1.61
2023-02-23T23:48:58.930Z,1.61
2023-02-23T23:51:30.487Z,1.61
2023-02-23T23:53:59.265Z,1.59
2023-02-23T23:56:26.159Z,1.58
2023-02-23T23:58:54.083Z,1.57
